createdAt,value
2022-09-27T00:02:16.941Z,98815.84
2022-09-27T00:04:44.661Z,98807.47
2022-09-27T00:07:12.438Z,98813.66
2022-09-27T00:09:40.320Z,98807.47
2022-09-27T00:12:08.128Z,98795.50
2022-09-27T00:14:35.898Z,98805.28
2022-09-27T00:17:04.122Z,98808.56
2022-09-27T00:19:33.219Z,98804.50
2022-09-27T00:22:01.465Z,98792.91
2022-09-27T00:24:29.705Z,98803.47
2022-09-27T00:26:57.426Z,98796.69
2022-09-27T00:29:25.167Z,98795.00
2022-09-27T00:31:53.223Z,98795.00
2022-09-27T00:34:22.861Z,98790.81
2022-09-27T00:36:52.863Z,98785.25
2022-09-27T00:39:20.844Z,98782.53
2022-09-27T00:41:48.744Z,98782.44
2022-09-27T00:44:51.948Z,98779.22
2022-09-27T00:47:25.505Z,98777.84
2022-09-27T00:49:56.534Z,98778.81
2022-09-27T00:52:29.281Z,98777.84
2022-09-27T00:55:01.665Z,98770.47
2022-09-27T00:57:33.329Z,98770.81
2022-09-27T01:00:05.200Z,98770.94
2022-09-27T01:02:36.377Z,98764.16
2022-09-27T01:05:04.905Z,98760.97
2022-09-27T01:07:36.962Z,98759.28
2022-09-27T01:10:06.886Z,98757.59
2022-09-27T01:12:43.733Z,98751.31
2022-09-27T01:15:17.075Z,98749.19
2022-09-27T01:17:51.135Z,98747.91
2022-09-27T01:20:48.187Z,98746.00
2022-09-27T01:23:46.474Z,98747.41
2022-09-27T01:26:25.827Z,98739.19
2022-09-27T01:29:04.093Z,98735.97
2022-09-27T01:31:35.362Z,98734.28
2022-09-27T01:34:05.782Z,98725.81
2022-09-27T01:36:41.429Z,98723.13
2022-09-27T01:39:22.210Z,98718.50
2022-09-27T01:41:55.657Z,98732.66
2022-09-27T01:44:28.185Z,98727.38
2022-09-27T01:46:59.931Z,98721.22
2022-09-27T01:49:32.537Z,98719.84
2022-09-27T01:52:03.061Z,98720.03
2022-09-27T01:54:40.560Z,98720.09
2022-09-27T01:57:10.652Z,98711.25
2022-09-27T01:59:43.936Z,98710.75
2022-09-27T02:02:13.809Z,98708.25
2022-09-27T02:04:43.213Z,98712.22
2022-09-27T02:07:13.825Z,98705.63
2022-09-27T02:09:45.242Z,98713.72
2022-09-27T02:12:15.616Z,98709.00
2022-09-27T02:14:45.833Z,98697.41
2022-09-27T02:17:23.352Z,98706.69
2022-09-27T02:19:55.964Z,98698.22
2022-09-27T02:22:31.475Z,98697.94
2022-09-27T02:25:02.574Z,98698.16
2022-09-27T02:27:33.017Z,98684.19
2022-09-27T02:30:03.672Z,98689.22
2022-09-27T02:32:32.938Z,98688.22
2022-09-27T02:35:02.611Z,98686.56
2022-09-27T02:37:30.537Z,98686.38
2022-09-27T02:39:58.628Z,98680.81
2022-09-27T02:42:26.825Z,98688.34
2022-09-27T02:44:54.847Z,98678.81
2022-09-27T02:47:35.094Z,98684.69
2022-09-27T02:50:17.788Z,98685.41
2022-09-27T02:52:51.248Z,98681.19
2022-09-27T02:55:20.962Z,98679.84
2022-09-27T02:57:59.332Z,98677.50
2022-09-27T03:00:32.116Z,98674.72
2022-09-27T03:03:06.260Z,98676.97
2022-09-27T03:05:37.106Z,98676.84
2022-09-27T03:08:07.950Z,98672.56
2022-09-27T03:10:35.825Z,98665.34
2022-09-27T03:13:04.389Z,98665.88
2022-09-27T03:15:32.295Z,98672.94
2022-09-27T03:18:02.489Z,98673.16
2022-09-27T03:20:33.778Z,98667.59
2022-09-27T03:23:01.555Z,98667.31
2022-09-27T03:25:29.720Z,98663.38
2022-09-27T03:27:57.449Z,98656.28
2022-09-27T03:30:25.258Z,98656.72
2022-09-27T03:32:53.006Z,98653.28
2022-09-27T03:35:20.765Z,98657.84
2022-09-27T03:37:49.846Z,98660.66
2022-09-27T03:40:17.591Z,98655.97
2022-09-27T03:42:49.569Z,98647.84
2022-09-27T03:45:17.874Z,98654.84
2022-09-27T03:47:45.642Z,98651.28
2022-09-27T03:50:13.778Z,98639.75
2022-09-27T03:52:42.557Z,98647.16
2022-09-27T03:55:12.309Z,98646.72
2022-09-27T03:57:40.278Z,98633.56
2022-09-27T04:00:09.526Z,98627.03
2022-09-27T04:02:37.255Z,98629.91
2022-09-27T04:05:05.559Z,98634.47
2022-09-27T04:07:33.271Z,98631.81
2022-09-27T04:10:01.080Z,98633.97
2022-09-27T04:12:30.162Z,98637.75
2022-09-27T04:14:57.876Z,98623.22
2022-09-27T04:17:27.418Z,98624.81
2022-09-27T04:19:55.180Z,98629.22
2022-09-27T04:22:23.594Z,98623.75
2022-09-27T04:24:51.373Z,98626.56
2022-09-27T04:27:19.093Z,98627.00
2022-09-27T04:29:48.169Z,98627.22
2022-09-27T04:32:16.194Z,98625.78
2022-09-27T04:35:03.451Z,98633.31
2022-09-27T04:37:31.145Z,98634.25
2022-09-27T04:39:58.884Z,98632.53
2022-09-27T04:42:28.695Z,98629.41
2022-09-27T04:44:57.969Z,98634.28
2022-09-27T04:47:25.675Z,98627.69
2022-09-27T04:49:53.421Z,98636.81
2022-09-27T04:52:21.127Z,98629.59
2022-09-27T04:54:48.845Z,98634.25
2022-09-27T04:57:16.551Z,98630.63
2022-09-27T04:59:44.372Z,98630.56
2022-09-27T05:02:13.473Z,98635.91
2022-09-27T05:04:41.278Z,98628.81
2022-09-27T05:07:09.382Z,98626.25
2022-09-27T05:09:37.160Z,98628.09
2022-09-27T05:12:07.659Z,98626.84
2022-09-27T05:14:35.473Z,98629.25
2022-09-27T05:17:04.761Z,98625.66
2022-09-27T05:19:33.901Z,98635.25
2022-09-27T05:22:03.516Z,98635.53
2022-09-27T05:24:33.078Z,98636.06
2022-09-27T05:27:03.105Z,98638.00
2022-09-27T05:29:30.952Z,98636.75
2022-09-27T05:31:58.682Z,98635.69
2022-09-27T05:34:26.388Z,98647.91
2022-09-27T05:36:55.642Z,98643.94
2022-09-27T05:39:23.749Z,98645.72
2022-09-27T05:44:25.850Z,98645.53
2022-09-27T05:46:53.665Z,98644.47
2022-09-27T05:49:21.537Z,98639.97
2022-09-27T05:51:49.436Z,98647.78
2022-09-27T05:54:18.610Z,98645.66
2022-09-27T05:56:46.358Z,98645.06
2022-09-27T05:59:14.177Z,98648.06
2022-09-27T06:01:42.010Z,98651.06
2022-09-27T06:04:09.828Z,98647.75
2022-09-27T06:06:37.727Z,98650.44
2022-09-27T06:09:05.510Z,98661.50
2022-09-27T06:11:34.911Z,98656.94
2022-09-27T06:14:27.118Z,98651.59
2022-09-27T06:16:55.288Z,98650.84
2022-09-27T06:19:24.496Z,98643.22
2022-09-27T06:21:52.261Z,98643.91
2022-09-27T06:24:19.998Z,98642.25
2022-09-27T06:26:49.088Z,98645.53
2022-09-27T06:29:16.923Z,98652.66
2022-09-27T06:31:44.702Z,98653.19
2022-09-27T06:34:12.444Z,98651.72
2022-09-27T06:36:40.153Z,98661.41
2022-09-27T06:39:08.008Z,98659.75
2022-09-27T06:41:35.986Z,98663.13
2022-09-27T06:44:05.854Z,98664.09
2022-09-27T06:46:33.626Z,98661.38
2022-09-27T06:49:10.313Z,98673.22
2022-09-27T06:51:38.021Z,98669.28
2022-09-27T06:54:06.077Z,98671.81
2022-09-27T06:56:33.825Z,98674.94
2022-09-27T06:59:19.359Z,98680.59
2022-09-27T07:01:48.540Z,98681.31
2022-09-27T07:04:16.422Z,98684.72
2022-09-27T07:06:44.147Z,98682.53
2022-09-27T07:09:11.916Z,98688.72
2022-09-27T07:11:40.135Z,98685.22
2022-09-27T07:14:08.155Z,98690.78
2022-09-27T07:16:35.889Z,98691.03
2022-09-27T07:19:07.691Z,98691.97
2022-09-27T07:21:35.489Z,98692.78
2022-09-27T07:24:04.672Z,98689.25
2022-09-27T07:26:32.555Z,98692.16
2022-09-27T07:29:02.965Z,98693.25
2022-09-27T07:31:31.092Z,98700.09
2022-09-27T07:33:58.805Z,98700.56
2022-09-27T07:36:27.910Z,98694.81
2022-09-27T07:38:56.208Z,98709.69
2022-09-27T07:41:23.944Z,98702.31
2022-09-27T07:43:51.673Z,98708.50
2022-09-27T07:46:20.168Z,98702.56
2022-09-27T07:48:49.152Z,98708.72
2022-09-27T07:51:16.888Z,98708.50
2022-09-27T07:53:46.014Z,98711.34
2022-09-27T07:56:13.720Z,98715.44
2022-09-27T07:58:41.972Z,98714.53
2022-09-27T08:01:09.740Z,98723.63
2022-09-27T08:03:37.959Z,98728.22
2022-09-27T08:06:05.834Z,98730.31
2022-09-27T08:08:33.523Z,98719.44
2022-09-27T08:11:02.957Z,98735.81
2022-09-27T08:13:30.859Z,98731.81
2022-09-27T08:16:04.642Z,98734.75
2022-09-27T08:18:32.478Z,98736.19
2022-09-27T08:21:18.882Z,98739.78
2022-09-27T08:24:05.366Z,98753.28
2022-09-27T08:26:52.752Z,98751.84
2022-09-27T08:29:41.640Z,98759.31
2022-09-27T08:32:09.581Z,98757.53
2022-09-27T08:34:37.380Z,98766.28
2022-09-27T08:37:05.526Z,98766.44
2022-09-27T08:39:35.868Z,98759.06
2022-09-27T08:42:11.544Z,98760.56
2022-09-27T08:44:44.171Z,98765.13
2022-09-27T08:47:16.851Z,98771.75
2022-09-27T08:49:47.022Z,98768.50
2022-09-27T08:52:19.489Z,98773.94
2022-09-27T08:54:47.990Z,98776.28
2022-09-27T08:57:17.892Z,98780.50
2022-09-27T08:59:50.430Z,98773.22
2022-09-27T09:02:20.292Z,98766.69
2022-09-27T09:04:49.805Z,98781.69
2022-09-27T09:07:27.885Z,98782.59
2022-09-27T09:10:06.420Z,98783.13
2022-09-27T09:12:48.331Z,98786.81
2022-09-27T09:15:21.960Z,98784.13
2022-09-27T09:18:04.374Z,98785.50
2022-09-27T09:20:43.591Z,98786.22
2022-09-27T09:23:31.841Z,98785.09
2022-09-27T09:26:06.022Z,98797.00
2022-09-27T09:28:52.767Z,98796.09
2022-09-27T09:31:26.333Z,98796.47
2022-09-27T09:33:56.505Z,98796.81
2022-09-27T09:36:29.835Z,98794.91
2022-09-27T09:39:00.017Z,98794.56
2022-09-27T09:41:30.222Z,98796.66
2022-09-27T09:44:04.049Z,98787.41
2022-09-27T09:46:35.091Z,98791.38
2022-09-27T09:49:07.320Z,98797.78
2022-09-27T09:51:39.404Z,98797.78
2022-09-27T09:54:09.993Z,98801.06
2022-09-27T09:56:41.021Z,98800.75
2022-09-27T09:59:16.422Z,98798.19
2022-09-27T10:01:45.226Z,98795.09
2022-09-27T10:04:18.702Z,98796.59
2022-09-27T10:06:46.467Z,98794.69
2022-09-27T10:09:15.189Z,98796.16
2022-09-27T10:11:45.013Z,98788.63
2022-09-27T10:14:15.659Z,98784.22
2022-09-27T10:16:48.596Z,98793.13
2022-09-27T10:19:19.674Z,98787.09
2022-09-27T10:21:49.491Z,98791.19
2022-09-27T10:24:19.428Z,98791.81
2022-09-27T10:26:49.484Z,98797.75
2022-09-27T10:29:26.361Z,98809.53
2022-09-27T10:31:54.327Z,98798.31
2022-09-27T10:34:27.003Z,98783.63
2022-09-27T10:37:17.150Z,98802.38
2022-09-27T10:39:46.194Z,98800.00
2022-09-27T10:42:26.690Z,98801.44
2022-09-27T10:44:55.787Z,98792.84
2022-09-27T10:47:26.307Z,98798.47
2022-09-27T10:50:04.867Z,98800.28
2022-09-27T10:52:32.631Z,98801.41
2022-09-27T10:55:03.007Z,98804.97
2022-09-27T10:57:31.615Z,98810.59
2022-09-27T11:00:03.014Z,98809.84
2022-09-27T11:02:32.596Z,98816.41
2022-09-27T11:05:06.424Z,98814.28
2022-09-27T11:07:37.253Z,98816.19
2022-09-27T11:10:23.381Z,98812.75
2022-09-27T11:13:06.858Z,98815.00
2022-09-27T11:15:41.998Z,98816.25
2022-09-27T11:18:13.218Z,98824.44
2022-09-27T11:20:44.960Z,98833.19
2022-09-27T11:23:33.837Z,98835.41
2022-09-27T11:26:18.834Z,98827.97
2022-09-27T11:28:53.827Z,98829.00
2022-09-27T11:31:29.829Z,98834.75
2022-09-27T11:34:23.893Z,98832.94
2022-09-27T11:37:05.646Z,98827.16
2022-09-27T11:39:40.958Z,98832.88
2022-09-27T11:42:23.764Z,98831.97
2022-09-27T11:48:00.419Z,98836.63
2022-09-27T11:50:43.487Z,98836.38
2022-09-27T11:53:21.447Z,98842.47
2022-09-27T11:55:55.285Z,98839.56
2022-09-27T11:58:29.429Z,98838.84
2022-09-27T12:01:06.549Z,98827.66
2022-09-27T12:03:53.168Z,98837.97
2022-09-27T12:06:23.161Z,98835.75
2022-09-27T12:08:59.351Z,98824.91
2022-09-27T12:11:30.351Z,98836.63
2022-09-27T12:14:00.829Z,98848.91
2022-09-27T12:16:31.990Z,98860.38
2022-09-27T12:19:04.185Z,98859.47
2022-09-27T12:21:32.598Z,98858.38
2022-09-27T12:24:00.625Z,98855.16
2022-09-27T12:26:36.018Z,98855.97
2022-09-27T12:29:10.697Z,98845.28
2022-09-27T12:31:43.386Z,98843.50
2022-09-27T12:34:19.852Z,98847.19
2022-09-27T12:36:51.481Z,98841.09
2022-09-27T12:39:23.364Z,98844.69
2022-09-27T12:41:56.396Z,98843.97
2022-09-27T12:44:24.342Z,98854.88
2022-09-27T12:47:01.074Z,98850.78
2022-09-27T12:49:38.374Z,98855.38
2022-09-27T12:52:09.749Z,98861.53
2022-09-27T12:54:53.526Z,98852.19
2022-09-27T12:57:32.489Z,98864.84
2022-09-27T13:00:12.229Z,98850.91
2022-09-27T13:03:16.814Z,98864.75
2022-09-27T13:06:04.544Z,98865.34
2022-09-27T13:08:50.806Z,98874.22
2022-09-27T13:11:25.154Z,98868.53
2022-09-27T13:13:56.304Z,98878.00
2022-09-27T13:16:25.313Z,98877.13
2022-09-27T13:19:01.337Z,98877.00
2022-09-27T13:21:57.279Z,98882.59
2022-09-27T13:24:43.896Z,98889.00
2022-09-27T13:27:37.357Z,98885.81
2022-09-27T13:30:47.174Z,98901.50
2022-09-27T13:33:46.309Z,98908.97
2022-09-27T13:36:28.242Z,98894.91
2022-09-27T13:39:05.905Z,98899.00
2022-09-27T13:41:43.753Z,98908.28
2022-09-27T13:44:16.767Z,98912.34
2022-09-27T13:46:53.462Z,98913.38
2022-09-27T13:49:24.643Z,98902.88
2022-09-27T13:51:56.099Z,98910.16
2022-09-27T13:54:41.624Z,98918.25
2022-09-27T13:57:42.049Z,98917.16
2022-09-27T14:00:13.985Z,98911.38
2022-09-27T14:02:52.792Z,98918.88
2022-09-27T14:05:25.315Z,98928.03
2022-09-27T14:07:53.276Z,98921.03
2022-09-27T14:10:24.282Z,98926.75
2022-09-27T14:12:53.570Z,98926.75
2022-09-27T14:15:24.082Z,98928.66
2022-09-27T14:17:52.093Z,98931.03
2022-09-27T14:20:34.214Z,98940.13
2022-09-27T14:23:03.037Z,98938.25
2022-09-27T14:25:32.261Z,98943.31
2022-09-27T14:28:00.441Z,98956.00
2022-09-27T14:30:30.554Z,98944.72
2022-09-27T14:33:00.618Z,98947.13
2022-09-27T14:35:48.171Z,98951.03
2022-09-27T14:38:36.447Z,98959.56
2022-09-27T14:41:07.963Z,98947.69
2022-09-27T14:43:36.360Z,98955.84
2022-09-27T14:46:06.859Z,98958.91
2022-09-27T14:48:36.708Z,98962.69
2022-09-27T14:51:10.629Z,98963.09
2022-09-27T14:53:44.371Z,98961.41
2022-09-27T14:56:17.969Z,98958.31
2022-09-27T14:58:48.235Z,98957.91
2022-09-27T15:01:17.604Z,98967.25
2022-09-27T15:03:46.349Z,98974.28
2022-09-27T15:06:14.241Z,98978.50
2022-09-27T15:08:43.056Z,98969.09
2022-09-27T15:11:10.813Z,98971.97
2022-09-27T15:13:41.994Z,98974.19
2022-09-27T15:16:13.019Z,98972.28
2022-09-27T15:18:42.442Z,98980.66
2022-09-27T15:21:13.733Z,98967.38
2022-09-27T15:23:43.193Z,98972.03
2022-09-27T15:26:15.543Z,98968.06
2022-09-27T15:28:46.576Z,98974.88
2022-09-27T15:31:14.846Z,98977.16
2022-09-27T15:33:43.793Z,98981.94
2022-09-27T15:36:12.526Z,98981.47
2022-09-27T15:38:43.912Z,98980.97
2022-09-27T15:41:14.042Z,98976.56
2022-09-27T15:43:46.459Z,98975.16
2022-09-27T15:46:35.274Z,98986.94
2022-09-27T15:49:22.632Z,98980.38
2022-09-27T15:51:51.610Z,98980.72
2022-09-27T15:54:20.660Z,98981.56
2022-09-27T15:56:54.514Z,98981.47
2022-09-27T15:59:26.536Z,98989.38
2022-09-27T16:01:56.650Z,98997.81
2022-09-27T16:04:24.623Z,98992.09
2022-09-27T16:06:52.356Z,99005.16
2022-09-27T16:09:22.039Z,98994.72
2022-09-27T16:11:50.925Z,98992.16
2022-09-27T16:14:19.766Z,99002.84
2022-09-27T16:16:50.450Z,99006.03
2022-09-27T16:19:18.424Z,99005.09
2022-09-27T16:21:48.341Z,99013.50
2022-09-27T16:24:17.076Z,99007.22
2022-09-27T16:26:45.025Z,99005.94
2022-09-27T16:29:14.047Z,99011.13
2022-09-27T16:31:42.639Z,99020.72
2022-09-27T16:34:12.597Z,99012.13
2022-09-27T16:36:40.822Z,99017.44
2022-09-27T16:39:12.552Z,99016.13
2022-09-27T16:41:42.222Z,99015.41
2022-09-27T16:44:10.897Z,99018.66
2022-09-27T16:46:41.060Z,99025.72
2022-09-27T16:49:29.281Z,99022.19
2022-09-27T16:52:00.543Z,99031.28
2022-09-27T16:54:29.200Z,99025.53
2022-09-27T16:56:58.065Z,99027.78
2022-09-27T16:59:25.914Z,99029.53
2022-09-27T17:01:58.112Z,99025.09
2022-09-27T17:04:26.408Z,99035.09
2022-09-27T17:06:54.832Z,99029.50
2022-09-27T17:09:24.053Z,99033.59
2022-09-27T17:11:51.970Z,99035.59
2022-09-27T17:14:19.757Z,99034.28
2022-09-27T17:16:48.675Z,99037.69
2022-09-27T17:19:18.386Z,99043.97
2022-09-27T17:21:46.837Z,99042.25
2022-09-27T17:24:14.761Z,99046.81
2022-09-27T17:26:44.205Z,99046.84
2022-09-27T17:29:12.639Z,99050.72
2022-09-27T17:31:43.827Z,99056.03
2022-09-27T17:34:13.592Z,99051.63
2022-09-27T17:36:43.303Z,99054.03
2022-09-27T17:39:13.266Z,99058.50
2022-09-27T17:41:41.076Z,99064.91
2022-09-27T17:44:13.231Z,99055.78
2022-09-27T17:46:41.134Z,99051.81
2022-09-27T17:49:27.568Z,99063.69
2022-09-27T17:51:55.433Z,99055.09
2022-09-27T17:54:25.114Z,99057.31
2022-09-27T17:56:53.018Z,99065.50
2022-09-27T17:59:22.887Z,99066.75
2022-09-27T18:01:50.791Z,99061.19
2022-09-27T18:04:20.517Z,99069.44
2022-09-27T18:06:48.686Z,99073.28
2022-09-27T18:09:17.789Z,99069.50
2022-09-27T18:11:45.735Z,99075.16
2022-09-27T18:14:13.685Z,99075.16
2022-09-27T18:16:44.112Z,99079.34
2022-09-27T18:19:13.274Z,99071.47
2022-09-27T18:21:41.020Z,99071.97
2022-09-27T18:24:09.869Z,99081.84
2022-09-27T18:26:39.174Z,99074.28
2022-09-27T18:29:08.249Z,99069.06
2022-09-27T18:31:36.017Z,99080.28
2022-09-27T18:34:06.305Z,99083.91
2022-09-27T18:36:34.301Z,99087.44
2022-09-27T18:39:12.364Z,99082.94
2022-09-27T18:41:40.624Z,99074.41
2022-09-27T18:44:08.673Z,99084.88
2022-09-27T18:46:37.577Z,99083.06
2022-09-27T18:49:08.410Z,99087.63
2022-09-27T18:51:37.836Z,99096.44
2022-09-27T18:54:09.768Z,99092.63
2022-09-27T18:56:39.521Z,99094.88
2022-09-27T18:59:08.826Z,99096.38
2022-09-27T19:01:39.457Z,99095.78
2022-09-27T19:04:10.254Z,99096.94
2022-09-27T19:06:39.161Z,99095.78
2022-09-27T19:09:11.311Z,99101.53
2022-09-27T19:11:39.279Z,99093.06
2022-09-27T19:14:07.575Z,99096.38
2022-09-27T19:16:35.472Z,99100.28
2022-09-27T19:19:04.078Z,99088.72
2022-09-27T19:21:33.146Z,99094.88
2022-09-27T19:24:03.005Z,99091.25
2022-09-27T19:26:30.819Z,99097.22
2022-09-27T19:28:59.024Z,99097.75
2022-09-27T19:31:29.337Z,99095.84
2022-09-27T19:34:00.357Z,99101.03
2022-09-27T19:36:29.048Z,99100.06
2022-09-27T19:38:59.098Z,99093.84
2022-09-27T19:41:27.406Z,99096.88
2022-09-27T19:43:55.880Z,99092.66
2022-09-27T19:46:24.591Z,99093.91
2022-09-27T19:48:52.792Z,99089.06
2022-09-27T19:51:21.892Z,99098.38
2022-09-27T19:53:49.671Z,99099.00
2022-09-27T19:56:19.497Z,99096.50
2022-09-27T19:58:47.303Z,99093.59
2022-09-27T20:01:19.082Z,99097.03
2022-09-27T20:03:47.510Z,99093.75
2022-09-27T20:06:16.737Z,99093.06
2022-09-27T20:08:44.990Z,99096.94
2022-09-27T20:11:14.372Z,99091.56
2022-09-27T20:13:44.603Z,99087.72
2022-09-27T20:16:14.006Z,99091.91
2022-09-27T20:18:43.460Z,99090.19
2022-09-27T20:21:11.933Z,99086.25
2022-09-27T20:23:39.814Z,99081.63
2022-09-27T20:26:08.642Z,99090.41
2022-09-27T20:28:36.562Z,99093.66
2022-09-27T20:31:06.110Z,99094.97
2022-09-27T20:33:43.809Z,99089.88
2022-09-27T20:36:13.264Z,99089.44
2022-09-27T20:38:41.650Z,99088.06
2022-09-27T20:41:10.310Z,99094.63
2022-09-27T20:43:38.967Z,99086.97
2022-09-27T20:46:10.958Z,99086.09
2022-09-27T20:48:39.489Z,99087.78
2022-09-27T20:51:08.167Z,99089.53
2022-09-27T20:53:36.069Z,99088.88
2022-09-27T20:56:05.456Z,99080.50
2022-09-27T20:58:33.378Z,99092.28
2022-09-27T21:01:06.076Z,99090.38
2022-09-27T21:03:35.373Z,99090.81
2022-09-27T21:06:05.066Z,99092.53
2022-09-27T21:08:34.180Z,99094.56
2022-09-27T21:11:07.053Z,99089.94
2022-09-27T21:13:34.821Z,99090.06
2022-09-27T21:16:03.442Z,99096.16
2022-09-27T21:18:31.747Z,99094.25
2022-09-27T21:21:02.223Z,99094.88
2022-09-27T21:23:31.011Z,99091.03
2022-09-27T21:26:03.489Z,99093.44
2022-09-27T21:28:35.380Z,99103.38
2022-09-27T21:31:08.225Z,99106.19
2022-09-27T21:33:36.326Z,99100.47
2022-09-27T21:36:08.500Z,99102.97
2022-09-27T21:38:36.359Z,99092.81
2022-09-27T21:41:07.020Z,99105.88
2022-09-27T21:43:36.469Z,99104.56
2022-09-27T21:46:07.593Z,99106.06
2022-09-27T21:48:36.881Z,99099.69
2022-09-27T21:51:08.189Z,99109.81
2022-09-27T21:53:37.464Z,99109.94
2022-09-27T21:56:05.584Z,99109.66
2022-09-27T21:58:34.592Z,99116.50
2022-09-27T22:01:08.938Z,99108.53
2022-09-27T22:03:37.166Z,99115.69
2022-09-27T22:06:07.100Z,99116.38
2022-09-27T22:08:34.842Z,99114.91
2022-09-27T22:11:02.593Z,99113.28
2022-09-27T22:13:30.450Z,99112.00
2022-09-27T22:16:03.255Z,99113.69
2022-09-27T22:18:31.017Z,99115.13
2022-09-27T22:21:03.058Z,99120.94
2022-09-27T22:23:32.300Z,99122.59
2022-09-27T22:26:00.590Z,99120.72
2022-09-27T22:28:29.733Z,99119.19
2022-09-27T22:30:57.507Z,99127.69
2022-09-27T22:33:25.256Z,99127.69
2022-09-27T22:35:52.964Z,99122.16
2022-09-27T22:38:20.676Z,99118.84
2022-09-27T22:40:56.528Z,99119.25
2022-09-27T22:43:24.457Z,99129.66
2022-09-27T22:45:52.163Z,99124.38
2022-09-27T22:48:19.930Z,99125.34
2022-09-27T22:50:47.736Z,99123.47
2022-09-27T22:53:15.714Z,99127.25
2022-09-27T22:55:43.468Z,99114.63
2022-09-27T22:58:12.900Z,99127.06
2022-09-27T23:00:40.691Z,99120.72
2022-09-27T23:03:08.431Z,99113.66
2022-09-27T23:05:36.169Z,99120.28
2022-09-27T23:08:07.033Z,99108.41
2022-09-27T23:10:35.941Z,99109.31
2022-09-27T23:13:06.837Z,99103.88
2022-09-27T23:15:35.982Z,99110.06
2022-09-27T23:18:06.355Z,99111.94
2022-09-27T23:20:34.459Z,99113.31
2022-09-27T23:23:02.611Z,99113.88
2022-09-27T23:25:30.320Z,99105.84
2022-09-27T23:27:58.145Z,99105.59
2022-09-27T23:30:26.628Z,99107.75
2022-09-27T23:32:56.367Z,99110.09
2022-09-27T23:35:25.488Z,99104.41
2022-09-27T23:37:53.540Z,99108.50
2022-09-27T23:40:21.273Z,99096.41
2022-09-27T23:42:49.005Z,99111.81
2022-09-27T23:45:16.768Z,99105.59
2022-09-27T23:47:44.493Z,99101.88
2022-09-27T23:50:14.205Z,99103.47
2022-09-27T23:52:41.933Z,99100.97
2022-09-27T23:55:10.293Z,99105.94
2022-09-27T23:57:38.586Z,99096.16
